sensor_id;sensor_type;location;lat;lon;timestamp;temperature;humidity
47600;DHT22;33323;52.124;6.018;2023-07-20T00:01:55;17.00;99.90
47600;DHT22;33323;52.124;6.018;2023-07-20T00:04:22;17.00;99.90
47600;DHT22;33323;52.124;6.018;2023-07-20T00:06:49;16.90;99.90
47600;DHT22;33323;52.124;6.018;2023-07-20T00:09:16;16.90;99.90
47600;DHT22;33323;52.124;6.018;2023-07-20T00:11:49;17.00;99.90
47600;DHT22;33323;52.124;6.018;2023-07-20T00:14:18;17.00;99.90
47600;DHT22;33323;52.124;6.018;2023-07-20T00:16:45;17.00;99.90
47600;DHT22;33323;52.124;6.018;2023-07-20T00:19:13;16.90;99.90
47600;DHT22;33323;52.124;6.018;2023-07-20T00:21:40;16.80;99.90
47600;DHT22;33323;52.124;6.018;2023-07-20T00:24:07;16.70;99.90
47600;DHT22;33323;52.124;6.018;2023-07-20T00:26:34;16.70;99.90
47600;DHT22;33323;52.124;6.018;2023-07-20T00:29:01;16.60;99.90
47600;DHT22;33323;52.124;6.018;2023-07-20T00:31:28;16.50;99.90
47600;DHT22;33323;52.124;6.018;2023-07-20T00:33:56;16.50;99.90
47600;DHT22;33323;52.124;6.018;2023-07-20T00:36:23;16.40;99.90
47600;DHT22;33323;52.124;6.018;2023-07-20T00:38:50;16.30;99.90
47600;DHT22;33323;52.124;6.018;2023-07-20T00:41:17;16.30;99.90
47600;DHT22;33323;52.124;6.018;2023-07-20T00:43:44;16.30;99.90
47600;DHT22;33323;52.124;6.018;2023-07-20T00:46:12;16.30;99.90
47600;DHT22;33323;52.124;6.018;2023-07-20T00:48:40;16.30;99.90
47600;DHT22;33323;52.124;6.018;2023-07-20T00:51:10;16.20;99.90
47600;DHT22;33323;52.124;6.018;2023-07-20T00:53:38;16.20;99.90
47600;DHT22;33323;52.124;6.018;2023-07-20T00:56:05;16.30;99.90
47600;DHT22;33323;52.124;6.018;2023-07-20T00:58:35;16.30;99.90
47600;DHT22;33323;52.124;6.018;2023-07-20T01:01:02;16.30;99.90
47600;DHT22;33323;52.124;6.018;2023-07-20T01:03:29;16.20;99.90
47600;DHT22;33323;52.124;6.018;2023-07-20T01:06:25;16.20;99.90
47600;DHT22;33323;52.124;6.018;2023-07-20T01:14:17;16.10;99.90
47600;DHT22;33323;52.124;6.018;2023-07-20T01:16:45;16.10;99.90
47600;DHT22;33323;52.124;6.018;2023-07-20T01:19:13;16.00;99.90
47600;DHT22;33323;52.124;6.018;2023-07-20T01:21:50;16.00;99.90
47600;DHT22;33323;52.124;6.018;2023-07-20T01:33:34;15.90;99.90
47600;DHT22;33323;52.124;6.018;2023-07-20T01:36:03;15.90;99.90
47600;DHT22;33323;52.124;6.018;2023-07-20T01:38:30;15.90;99.90
47600;DHT22;33323;52.124;6.018;2023-07-20T01:40:58;15.90;99.90
47600;DHT22;33323;52.124;6.018;2023-07-20T01:43:25;16.00;99.90
47600;DHT22;33323;52.124;6.018;2023-07-20T01:45:52;15.90;99.90
47600;DHT22;33323;52.124;6.018;2023-07-20T01:48:20;16.00;99.90
47600;DHT22;33323;52.124;6.018;2023-07-20T01:50:47;15.90;99.90
47600;DHT22;33323;52.124;6.018;2023-07-20T01:53:14;15.90;99.90
47600;DHT22;33323;52.124;6.018;2023-07-20T01:55:42;15.80;99.90
47600;DHT22;33323;52.124;6.018;2023-07-20T01:58:09;15.80;99.90
47600;DHT22;33323;52.124;6.018;2023-07-20T02:00:37;15.70;99.90
47600;DHT22;33323;52.124;6.018;2023-07-20T02:03:05;15.70;99.90
47600;DHT22;33323;52.124;6.018;2023-07-20T02:05:32;15.70;99.90
47600;DHT22;33323;52.124;6.018;2023-07-20T02:07:59;15.70;99.90
47600;DHT22;33323;52.124;6.018;2023-07-20T02:10:27;15.60;99.90
47600;DHT22;33323;52.124;6.018;2023-07-20T02:12:54;15.60;99.90
47600;DHT22;33323;52.124;6.018;2023-07-20T02:15:21;15.60;99.90
47600;DHT22;33323;52.124;6.018;2023-07-20T02:17:50;15.60;99.90
47600;DHT22;33323;52.124;6.018;2023-07-20T02:20:18;15.60;99.90
47600;DHT22;33323;52.124;6.018;2023-07-20T02:22:46;15.60;99.90
47600;DHT22;33323;52.124;6.018;2023-07-20T02:25:13;15.60;99.90
47600;DHT22;33323;52.124;6.018;2023-07-20T02:27:41;15.50;99.90
47600;DHT22;33323;52.124;6.018;2023-07-20T02:30:08;15.40;99.90
47600;DHT22;33323;52.124;6.018;2023-07-20T02:32:36;15.30;99.90
47600;DHT22;33323;52.124;6.018;2023-07-20T02:35:04;15.30;99.90
47600;DHT22;33323;52.124;6.018;2023-07-20T02:37:31;15.30;99.90
47600;DHT22;33323;52.124;6.018;2023-07-20T02:39:59;15.20;99.90
47600;DHT22;33323;52.124;6.018;2023-07-20T02:42:27;15.10;99.90
47600;DHT22;33323;52.124;6.018;2023-07-20T02:44:54;15.10;99.90
47600;DHT22;33323;52.124;6.018;2023-07-20T02:47:21;15.10;99.90
47600;DHT22;33323;52.124;6.018;2023-07-20T02:49:49;15.00;99.90
47600;DHT22;33323;52.124;6.018;2023-07-20T02:52:17;15.00;99.90
47600;DHT22;33323;52.124;6.018;2023-07-20T02:54:48;15.10;99.90
47600;DHT22;33323;52.124;6.018;2023-07-20T02:57:15;15.10;99.90
47600;DHT22;33323;52.124;6.018;2023-07-20T02:59:42;15.10;99.90
47600;DHT22;33323;52.124;6.018;2023-07-20T03:02:09;15.10;99.90
47600;DHT22;33323;52.124;6.018;2023-07-20T03:04:36;15.10;99.90
47600;DHT22;33323;52.124;6.018;2023-07-20T03:07:07;15.10;99.90
47600;DHT22;33323;52.124;6.018;2023-07-20T03:09:34;15.00;99.90
47600;DHT22;33323;52.124;6.018;2023-07-20T03:12:01;15.00;99.90
47600;DHT22;33323;52.124;6.018;2023-07-20T03:14:31;14.90;99.90
47600;DHT22;33323;52.124;6.018;2023-07-20T03:16:58;15.00;99.90
47600;DHT22;33323;52.124;6.018;2023-07-20T03:19:25;15.00;99.90
47600;DHT22;33323;52.124;6.018;2023-07-20T03:21:52;14.80;99.90
47600;DHT22;33323;52.124;6.018;2023-07-20T03:24:19;14.70;99.90
47600;DHT22;33323;52.124;6.018;2023-07-20T03:26:47;14.80;99.90
47600;DHT22;33323;52.124;6.018;2023-07-20T03:29:14;14.70;99.90
47600;DHT22;33323;52.124;6.018;2023-07-20T03:31:43;14.60;99.90
47600;DHT22;33323;52.124;6.018;2023-07-20T03:34:10;14.60;99.90
47600;DHT22;33323;52.124;6.018;2023-07-20T03:36:41;14.50;99.90
47600;DHT22;33323;52.124;6.018;2023-07-20T03:39:11;14.40;99.90
47600;DHT22;33323;52.124;6.018;2023-07-20T03:41:38;14.50;99.90
47600;DHT22;33323;52.124;6.018;2023-07-20T03:44:06;14.40;99.90
47600;DHT22;33323;52.124;6.018;2023-07-20T03:46:33;14.40;99.90
47600;DHT22;33323;52.124;6.018;2023-07-20T03:49:02;14.40;99.90
47600;DHT22;33323;52.124;6.018;2023-07-20T03:51:30;14.40;99.90
47600;DHT22;33323;52.124;6.018;2023-07-20T03:53:57;14.40;99.90
47600;DHT22;33323;52.124;6.018;2023-07-20T03:56:25;14.40;99.90
47600;DHT22;33323;52.124;6.018;2023-07-20T03:58:52;14.40;99.90
47600;DHT22;33323;52.124;6.018;2023-07-20T04:01:20;14.30;99.90
47600;DHT22;33323;52.124;6.018;2023-07-20T04:03:47;14.30;99.90
47600;DHT22;33323;52.124;6.018;2023-07-20T04:06:16;14.40;99.90
47600;DHT22;33323;52.124;6.018;2023-07-20T04:08:44;14.60;99.90
47600;DHT22;33323;52.124;6.018;2023-07-20T04:11:14;15.00;99.90
47600;DHT22;33323;52.124;6.018;2023-07-20T04:13:42;15.30;99.90
47600;DHT22;33323;52.124;6.018;2023-07-20T04:16:09;15.60;99.90
47600;DHT22;33323;52.124;6.018;2023-07-20T04:18:37;16.00;99.90
47600;DHT22;33323;52.124;6.018;2023-07-20T04:21:04;16.10;99.90
47600;DHT22;33323;52.124;6.018;2023-07-20T04:23:32;16.40;99.90
47600;DHT22;33323;52.124;6.018;2023-07-20T04:26:00;16.70;99.90
47600;DHT22;33323;52.124;6.018;2023-07-20T04:28:27;16.90;99.90
47600;DHT22;33323;52.124;6.018;2023-07-20T04:30:54;17.30;99.90
47600;DHT22;33323;52.124;6.018;2023-07-20T04:33:22;17.50;99.90
47600;DHT22;33323;52.124;6.018;2023-07-20T04:35:51;17.80;99.90
47600;DHT22;33323;52.124;6.018;2023-07-20T04:38:31;17.90;99.90
47600;DHT22;33323;52.124;6.018;2023-07-20T04:41:11;18.00;99.90
47600;DHT22;33323;52.124;6.018;2023-07-20T04:43:44;18.10;99.90
47600;DHT22;33323;52.124;6.018;2023-07-20T04:46:15;18.30;99.90
47600;DHT22;33323;52.124;6.018;2023-07-20T04:48:45;18.50;99.90
47600;DHT22;33323;52.124;6.018;2023-07-20T04:51:12;18.60;99.90
47600;DHT22;33323;52.124;6.018;2023-07-20T04:53:40;19.00;99.90
47600;DHT22;33323;52.124;6.018;2023-07-20T04:56:09;19.40;99.90
47600;DHT22;33323;52.124;6.018;2023-07-20T04:58:38;19.70;99.90
47600;DHT22;33323;52.124;6.018;2023-07-20T05:01:05;19.80;99.90
47600;DHT22;33323;52.124;6.018;2023-07-20T05:03:35;20.00;99.90
47600;DHT22;33323;52.124;6.018;2023-07-20T05:06:02;19.90;99.90
47600;DHT22;33323;52.124;6.018;2023-07-20T05:08:30;20.20;99.90
47600;DHT22;33323;52.124;6.018;2023-07-20T05:10:59;20.30;99.90
47600;DHT22;33323;52.124;6.018;2023-07-20T05:13:27;20.60;99.90
47600;DHT22;33323;52.124;6.018;2023-07-20T05:15:54;21.00;99.90
47600;DHT22;33323;52.124;6.018;2023-07-20T05:18:23;21.30;99.90
47600;DHT22;33323;52.124;6.018;2023-07-20T05:20:51;21.50;99.90
47600;DHT22;33323;52.124;6.018;2023-07-20T05:23:19;21.70;99.90
47600;DHT22;33323;52.124;6.018;2023-07-20T05:25:53;21.80;99.90
47600;DHT22;33323;52.124;6.018;2023-07-20T05:28:25;21.50;99.90
47600;DHT22;33323;52.124;6.018;2023-07-20T05:30:55;21.50;99.90
47600;DHT22;33323;52.124;6.018;2023-07-20T05:33:23;21.70;99.90
47600;DHT22;33323;52.124;6.018;2023-07-20T05:35:51;21.90;99.90
47600;DHT22;33323;52.124;6.018;2023-07-20T05:38:18;22.60;99.90
47600;DHT22;33323;52.124;6.018;2023-07-20T05:40:46;22.70;99.90
47600;DHT22;33323;52.124;6.018;2023-07-20T05:43:14;22.70;99.90
47600;DHT22;33323;52.124;6.018;2023-07-20T05:45:42;22.60;99.90
47600;DHT22;33323;52.124;6.018;2023-07-20T05:48:10;22.40;99.90
47600;DHT22;33323;52.124;6.018;2023-07-20T05:50:42;22.40;99.90
47600;DHT22;33323;52.124;6.018;2023-07-20T05:53:10;22.30;99.90
47600;DHT22;33323;52.124;6.018;2023-07-20T05:55:38;22.30;99.90
47600;DHT22;33323;52.124;6.018;2023-07-20T05:58:06;22.50;99.90
47600;DHT22;33323;52.124;6.018;2023-07-20T06:00:33;22.20;99.90
47600;DHT22;33323;52.124;6.018;2023-07-20T06:03:00;21.70;99.90
47600;DHT22;33323;52.124;6.018;2023-07-20T06:05:27;21.40;99.90
47600;DHT22;33323;52.124;6.018;2023-07-20T06:07:55;21.30;99.90
47600;DHT22;33323;52.124;6.018;2023-07-20T06:10:24;21.40;99.90
47600;DHT22;33323;52.124;6.018;2023-07-20T06:12:51;21.40;99.90
47600;DHT22;33323;52.124;6.018;2023-07-20T06:15:44;21.40;99.90
47600;DHT22;33323;52.124;6.018;2023-07-20T06:18:12;21.80;99.90
47600;DHT22;33323;52.124;6.018;2023-07-20T06:20:39;22.20;99.90
47600;DHT22;33323;52.124;6.018;2023-07-20T06:23:06;22.40;99.90
47600;DHT22;33323;52.124;6.018;2023-07-20T06:25:34;22.90;99.90
47600;DHT22;33323;52.124;6.018;2023-07-20T06:28:01;23.20;99.90
47600;DHT22;33323;52.124;6.018;2023-07-20T06:30:33;22.80;99.90
47600;DHT22;33323;52.124;6.018;2023-07-20T06:33:01;22.40;99.90
47600;DHT22;33323;52.124;6.018;2023-07-20T06:35:29;22.30;99.90
47600;DHT22;33323;52.124;6.018;2023-07-20T06:37:56;22.40;99.90
47600;DHT22;33323;52.124;6.018;2023-07-20T06:40:46;22.30;99.90
47600;DHT22;33323;52.124;6.018;2023-07-20T06:43:14;22.50;99.90
47600;DHT22;33323;52.124;6.018;2023-07-20T06:45:44;23.00;99.90
47600;DHT22;33323;52.124;6.018;2023-07-20T06:48:12;23.40;99.90
47600;DHT22;33323;52.124;6.018;2023-07-20T06:50:39;22.90;99.90
47600;DHT22;33323;52.124;6.018;2023-07-20T06:53:06;22.40;99.90
47600;DHT22;33323;52.124;6.018;2023-07-20T06:55:34;22.20;99.90
47600;DHT22;33323;52.124;6.018;2023-07-20T06:58:08;21.80;99.90
47600;DHT22;33323;52.124;6.018;2023-07-20T07:00:39;21.90;99.90
47600;DHT22;33323;52.124;6.018;2023-07-20T07:03:06;21.90;99.90
47600;DHT22;33323;52.124;6.018;2023-07-20T07:05:38;22.00;99.90
47600;DHT22;33323;52.124;6.018;2023-07-20T07:08:05;22.00;99.90
47600;DHT22;33323;52.124;6.018;2023-07-20T07:10:34;22.10;99.90
47600;DHT22;33323;52.124;6.018;2023-07-20T07:13:03;22.40;99.90
47600;DHT22;33323;52.124;6.018;2023-07-20T07:15:31;22.70;99.90
47600;DHT22;33323;52.124;6.018;2023-07-20T07:17:59;22.60;99.90
47600;DHT22;33323;52.124;6.018;2023-07-20T07:20:27;22.70;99.90
47600;DHT22;33323;52.124;6.018;2023-07-20T07:22:55;23.10;99.90
47600;DHT22;33323;52.124;6.018;2023-07-20T07:25:24;23.90;99.90
47600;DHT22;33323;52.124;6.018;2023-07-20T07:27:53;23.10;99.90
47600;DHT22;33323;52.124;6.018;2023-07-20T07:30:21;23.30;99.90
47600;DHT22;33323;52.124;6.018;2023-07-20T07:32:48;23.60;99.90
47600;DHT22;33323;52.124;6.018;2023-07-20T07:35:16;24.30;99.90
47600;DHT22;33323;52.124;6.018;2023-07-20T07:37:43;24.40;99.90
47600;DHT22;33323;52.124;6.018;2023-07-20T07:40:33;24.30;99.90
47600;DHT22;33323;52.124;6.018;2023-07-20T07:43:01;23.80;99.90
47600;DHT22;33323;52.124;6.018;2023-07-20T07:45:28;23.60;99.90
47600;DHT22;33323;52.124;6.018;2023-07-20T07:47:56;23.20;99.90
47600;DHT22;33323;52.124;6.018;2023-07-20T07:50:23;22.60;99.90
47600;DHT22;33323;52.124;6.018;2023-07-20T07:52:51;22.50;99.90
47600;DHT22;33323;52.124;6.018;2023-07-20T07:55:18;22.50;99.90
47600;DHT22;33323;52.124;6.018;2023-07-20T07:57:45;22.90;99.90
47600;DHT22;33323;52.124;6.018;2023-07-20T08:00:15;22.50;99.90
47600;DHT22;33323;52.124;6.018;2023-07-20T08:02:46;22.40;99.90
47600;DHT22;33323;52.124;6.018;2023-07-20T08:05:15;21.40;99.90
47600;DHT22;33323;52.124;6.018;2023-07-20T08:07:42;21.30;99.90
47600;DHT22;33323;52.124;6.018;2023-07-20T08:10:10;21.00;99.90
47600;DHT22;33323;52.124;6.018;2023-07-20T08:12:38;21.30;99.90
47600;DHT22;33323;52.124;6.018;2023-07-20T08:15:05;21.60;99.90
47600;DHT22;33323;52.124;6.018;2023-07-20T08:17:33;21.70;99.90
47600;DHT22;33323;52.124;6.018;2023-07-20T08:20:01;22.00;99.90
47600;DHT22;33323;52.124;6.018;2023-07-20T08:22:29;22.00;99.90
47600;DHT22;33323;52.124;6.018;2023-07-20T08:24:56;21.50;99.90
47600;DHT22;33323;52.124;6.018;2023-07-20T08:27:25;21.60;99.90
47600;DHT22;33323;52.124;6.018;2023-07-20T08:29:52;21.70;99.90
47600;DHT22;33323;52.124;6.018;2023-07-20T08:32:20;22.60;99.90
47600;DHT22;33323;52.124;6.018;2023-07-20T08:34:47;23.70;99.90
47600;DHT22;33323;52.124;6.018;2023-07-20T08:37:15;24.60;99.90
47600;DHT22;33323;52.124;6.018;2023-07-20T08:39:42;25.10;99.90
47600;DHT22;33323;52.124;6.018;2023-07-20T08:42:10;25.20;99.90
47600;DHT22;33323;52.124;6.018;2023-07-20T08:44:39;24.00;99.90
47600;DHT22;33323;52.124;6.018;2023-07-20T08:47:09;22.50;99.90
47600;DHT22;33323;52.124;6.018;2023-07-20T08:49:39;22.70;99.90
47600;DHT22;33323;52.124;6.018;2023-07-20T08:52:07;23.10;99.90
47600;DHT22;33323;52.124;6.018;2023-07-20T08:54:34;23.60;99.90
47600;DHT22;33323;52.124;6.018;2023-07-20T08:57:04;24.40;99.90
47600;DHT22;33323;52.124;6.018;2023-07-20T08:59:34;24.30;99.90
47600;DHT22;33323;52.124;6.018;2023-07-20T09:02:04;23.90;99.90
47600;DHT22;33323;52.124;6.018;2023-07-20T09:04:32;23.10;99.90
47600;DHT22;33323;52.124;6.018;2023-07-20T09:07:03;23.30;99.90
47600;DHT22;33323;52.124;6.018;2023-07-20T09:09:31;24.10;99.90
47600;DHT22;33323;52.124;6.018;2023-07-20T09:11:58;24.70;99.90
47600;DHT22;33323;52.124;6.018;2023-07-20T09:14:26;25.60;99.90
47600;DHT22;33323;52.124;6.018;2023-07-20T09:16:54;26.70;99.90
47600;DHT22;33323;52.124;6.018;2023-07-20T09:19:23;27.40;99.90
47600;DHT22;33323;52.124;6.018;2023-07-20T09:21:51;27.30;99.90
47600;DHT22;33323;52.124;6.018;2023-07-20T09:24:19;27.70;99.90
47600;DHT22;33323;52.124;6.018;2023-07-20T09:26:48;27.50;99.90
47600;DHT22;33323;52.124;6.018;2023-07-20T09:29:19;25.60;99.90
47600;DHT22;33323;52.124;6.018;2023-07-20T09:32:00;25.10;99.90
47600;DHT22;33323;52.124;6.018;2023-07-20T09:34:29;25.10;99.90
47600;DHT22;33323;52.124;6.018;2023-07-20T09:37:03;25.00;99.90
47600;DHT22;33323;52.124;6.018;2023-07-20T09:39:32;24.50;99.90
47600;DHT22;33323;52.124;6.018;2023-07-20T09:42:03;24.20;99.90
47600;DHT22;33323;52.124;6.018;2023-07-20T09:44:34;24.70;99.90
47600;DHT22;33323;52.124;6.018;2023-07-20T09:47:05;24.80;99.90
47600;DHT22;33323;52.124;6.018;2023-07-20T09:49:34;24.10;99.90
47600;DHT22;33323;52.124;6.018;2023-07-20T09:52:10;23.40;99.90
47600;DHT22;33323;52.124;6.018;2023-07-20T09:54:38;22.50;99.90
47600;DHT22;33323;52.124;6.018;2023-07-20T09:57:09;22.90;99.90
47600;DHT22;33323;52.124;6.018;2023-07-20T09:59:39;23.20;99.90
47600;DHT22;33323;52.124;6.018;2023-07-20T10:02:13;23.40;99.90
47600;DHT22;33323;52.124;6.018;2023-07-20T10:04:50;23.10;99.90
47600;DHT22;33323;52.124;6.018;2023-07-20T10:07:22;22.60;99.90
47600;DHT22;33323;52.124;6.018;2023-07-20T10:09:52;22.30;99.90
47600;DHT22;33323;52.124;6.018;2023-07-20T10:12:22;21.80;99.90
47600;DHT22;33323;52.124;6.018;2023-07-20T10:15:10;21.70;99.90
47600;DHT22;33323;52.124;6.018;2023-07-20T10:18:11;22.30;99.90
47600;DHT22;33323;52.124;6.018;2023-07-20T10:20:40;22.80;99.90
47600;DHT22;33323;52.124;6.018;2023-07-20T10:23:29;23.30;99.90
47600;DHT22;33323;52.124;6.018;2023-07-20T10:25:58;24.10;99.90
47600;DHT22;33323;52.124;6.018;2023-07-20T10:28:28;24.80;99.90
47600;DHT22;33323;52.124;6.018;2023-07-20T10:30:55;24.90;99.90
47600;DHT22;33323;52.124;6.018;2023-07-20T10:33:24;24.40;99.90
47600;DHT22;33323;52.124;6.018;2023-07-20T10:35:55;24.30;99.90
47600;DHT22;33323;52.124;6.018;2023-07-20T10:38:56;24.30;99.90
47600;DHT22;33323;52.124;6.018;2023-07-20T10:41:35;24.20;99.90
47600;DHT22;33323;52.124;6.018;2023-07-20T10:44:07;24.20;99.90
47600;DHT22;33323;52.124;6.018;2023-07-20T10:49:08;24.30;99.90
47600;DHT22;33323;52.124;6.018;2023-07-20T10:56:49;25.40;99.90
47600;DHT22;33323;52.124;6.018;2023-07-20T10:59:35;25.30;99.90
47600;DHT22;33323;52.124;6.018;2023-07-20T11:02:08;25.70;99.90
47600;DHT22;33323;52.124;6.018;2023-07-20T11:04:43;26.20;99.90
47600;DHT22;33323;52.124;6.018;2023-07-20T11:07:37;26.40;99.90
47600;DHT22;33323;52.124;6.018;2023-07-20T11:10:14;26.30;99.90
47600;DHT22;33323;52.124;6.018;2023-07-20T11:13:22;26.30;99.90
47600;DHT22;33323;52.124;6.018;2023-07-20T11:18:28;26.80;99.90
47600;DHT22;33323;52.124;6.018;2023-07-20T11:20:55;26.50;99.90
47600;DHT22;33323;52.124;6.018;2023-07-20T11:23:23;27.10;99.90
47600;DHT22;33323;52.124;6.018;2023-07-20T11:25:51;26.70;99.90
47600;DHT22;33323;52.124;6.018;2023-07-20T11:28:18;26.40;99.90
47600;DHT22;33323;52.124;6.018;2023-07-20T11:30:51;26.40;99.90
47600;DHT22;33323;52.124;6.018;2023-07-20T11:33:22;26.30;99.90
47600;DHT22;33323;52.124;6.018;2023-07-20T11:35:49;25.90;99.90
47600;DHT22;33323;52.124;6.018;2023-07-20T11:38:18;25.60;99.90
47600;DHT22;33323;52.124;6.018;2023-07-20T11:40:46;25.30;99.90
47600;DHT22;33323;52.124;6.018;2023-07-20T11:43:14;25.00;99.90
47600;DHT22;33323;52.124;6.018;2023-07-20T11:45:45;24.70;99.90
47600;DHT22;33323;52.124;6.018;2023-07-20T11:48:16;24.50;99.90
47600;DHT22;33323;52.124;6.018;2023-07-20T11:50:44;24.00;99.90
47600;DHT22;33323;52.124;6.018;2023-07-20T11:53:11;23.90;99.90
47600;DHT22;33323;52.124;6.018;2023-07-20T11:55:40;23.90;99.90
47600;DHT22;33323;52.124;6.018;2023-07-20T11:58:09;23.90;99.90
47600;DHT22;33323;52.124;6.018;2023-07-20T12:00:38;23.90;99.90
47600;DHT22;33323;52.124;6.018;2023-07-20T12:03:07;23.90;99.90
47600;DHT22;33323;52.124;6.018;2023-07-20T12:05:38;23.80;99.90
47600;DHT22;33323;52.124;6.018;2023-07-20T12:08:26;23.70;99.90
47600;DHT22;33323;52.124;6.018;2023-07-20T12:10:53;24.10;99.90
47600;DHT22;33323;52.124;6.018;2023-07-20T12:13:21;24.10;99.90
47600;DHT22;33323;52.124;6.018;2023-07-20T12:15:53;24.30;99.90
47600;DHT22;33323;52.124;6.018;2023-07-20T12:18:23;24.20;99.90
47600;DHT22;33323;52.124;6.018;2023-07-20T12:20:59;24.10;99.90
47600;DHT22;33323;52.124;6.018;2023-07-20T12:23:27;24.40;99.90
47600;DHT22;33323;52.124;6.018;2023-07-20T12:26:01;24.60;99.90
47600;DHT22;33323;52.124;6.018;2023-07-20T12:28:29;24.50;99.90
47600;DHT22;33323;52.124;6.018;2023-07-20T12:30:57;24.30;99.90
47600;DHT22;33323;52.124;6.018;2023-07-20T12:33:25;24.40;99.90
47600;DHT22;33323;52.124;6.018;2023-07-20T12:35:53;24.50;99.90
47600;DHT22;33323;52.124;6.018;2023-07-20T12:38:23;24.60;99.90
47600;DHT22;33323;52.124;6.018;2023-07-20T12:40:51;24.70;99.90
47600;DHT22;33323;52.124;6.018;2023-07-20T12:43:18;24.70;99.90
47600;DHT22;33323;52.124;6.018;2023-07-20T12:45:46;24.60;99.90
47600;DHT22;33323;52.124;6.018;2023-07-20T12:48:14;24.70;99.90
47600;DHT22;33323;52.124;6.018;2023-07-20T12:50:42;24.40;99.90
47600;DHT22;33323;52.124;6.018;2023-07-20T12:53:09;24.20;99.90
47600;DHT22;33323;52.124;6.018;2023-07-20T12:55:38;24.50;99.90
47600;DHT22;33323;52.124;6.018;2023-07-20T12:58:09;24.80;99.90
47600;DHT22;33323;52.124;6.018;2023-07-20T13:00:37;24.70;99.90
47600;DHT22;33323;52.124;6.018;2023-07-20T13:03:04;24.60;99.90
47600;DHT22;33323;52.124;6.018;2023-07-20T13:05:36;24.50;99.90
47600;DHT22;33323;52.124;6.018;2023-07-20T13:08:06;24.00;99.90
47600;DHT22;33323;52.124;6.018;2023-07-20T13:10:37;24.10;99.90
47600;DHT22;33323;52.124;6.018;2023-07-20T13:13:06;24.10;99.90
47600;DHT22;33323;52.124;6.018;2023-07-20T13:15:43;24.20;99.90
47600;DHT22;33323;52.124;6.018;2023-07-20T13:18:11;24.40;99.90
47600;DHT22;33323;52.124;6.018;2023-07-20T13:20:39;24.70;99.90
47600;DHT22;33323;52.124;6.018;2023-07-20T13:23:07;25.10;99.90
47600;DHT22;33323;52.124;6.018;2023-07-20T13:25:35;25.30;99.90
47600;DHT22;33323;52.124;6.018;2023-07-20T13:28:04;25.80;99.90
47600;DHT22;33323;52.124;6.018;2023-07-20T13:30:32;26.30;99.90
47600;DHT22;33323;52.124;6.018;2023-07-20T13:33:00;26.20;99.90
47600;DHT22;33323;52.124;6.018;2023-07-20T13:35:32;26.40;99.90
47600;DHT22;33323;52.124;6.018;2023-07-20T13:38:03;26.30;99.90
47600;DHT22;33323;52.124;6.018;2023-07-20T13:40:30;26.00;99.90
47600;DHT22;33323;52.124;6.018;2023-07-20T13:42:58;25.90;99.90
47600;DHT22;33323;52.124;6.018;2023-07-20T13:45:26;26.00;99.90
47600;DHT22;33323;52.124;6.018;2023-07-20T13:47:53;25.80;99.90
47600;DHT22;33323;52.124;6.018;2023-07-20T13:50:22;25.50;99.90
47600;DHT22;33323;52.124;6.018;2023-07-20T13:52:53;24.90;99.90
47600;DHT22;33323;52.124;6.018;2023-07-20T13:55:41;23.90;99.90
47600;DHT22;33323;52.124;6.018;2023-07-20T13:58:11;23.10;99.90
47600;DHT22;33323;52.124;6.018;2023-07-20T14:00:40;22.70;99.90
47600;DHT22;33323;52.124;6.018;2023-07-20T14:03:07;22.50;99.90
47600;DHT22;33323;52.124;6.018;2023-07-20T14:05:39;22.40;99.90
47600;DHT22;33323;52.124;6.018;2023-07-20T14:08:10;22.40;99.90
47600;DHT22;33323;52.124;6.018;2023-07-20T14:10:38;22.00;99.90
47600;DHT22;33323;52.124;6.018;2023-07-20T14:13:09;21.80;99.90
47600;DHT22;33323;52.124;6.018;2023-07-20T14:15:38;21.70;99.90
47600;DHT22;33323;52.124;6.018;2023-07-20T14:18:06;21.60;99.90
47600;DHT22;33323;52.124;6.018;2023-07-20T14:20:33;21.70;99.90
47600;DHT22;33323;52.124;6.018;2023-07-20T14:23:05;21.70;99.90
47600;DHT22;33323;52.124;6.018;2023-07-20T14:25:32;21.80;99.90
47600;DHT22;33323;52.124;6.018;2023-07-20T14:28:04;21.80;99.90
47600;DHT22;33323;52.124;6.018;2023-07-20T14:30:32;22.00;99.90
47600;DHT22;33323;52.124;6.018;2023-07-20T14:32:59;22.40;99.90
47600;DHT22;33323;52.124;6.018;2023-07-20T14:35:27;22.50;99.90
47600;DHT22;33323;52.124;6.018;2023-07-20T14:37:55;22.30;99.90
47600;DHT22;33323;52.124;6.018;2023-07-20T14:40:22;22.20;99.90
47600;DHT22;33323;52.124;6.018;2023-07-20T14:42:49;22.50;99.90
47600;DHT22;33323;52.124;6.018;2023-07-20T14:45:16;22.80;99.90
47600;DHT22;33323;52.124;6.018;2023-07-20T14:47:44;22.90;99.90
47600;DHT22;33323;52.124;6.018;2023-07-20T14:50:12;23.00;99.90
47600;DHT22;33323;52.124;6.018;2023-07-20T14:52:39;23.30;99.90
47600;DHT22;33323;52.124;6.018;2023-07-20T14:55:15;23.40;99.90
47600;DHT22;33323;52.124;6.018;2023-07-20T14:57:42;23.30;99.90
47600;DHT22;33323;52.124;6.018;2023-07-20T15:00:10;23.20;99.90
47600;DHT22;33323;52.124;6.018;2023-07-20T15:02:38;23.20;99.90
47600;DHT22;33323;52.124;6.018;2023-07-20T15:05:09;23.10;99.90
47600;DHT22;33323;52.124;6.018;2023-07-20T15:07:37;22.70;99.90
47600;DHT22;33323;52.124;6.018;2023-07-20T15:10:05;22.40;99.90
47600;DHT22;33323;52.124;6.018;2023-07-20T15:12:33;22.70;99.90
47600;DHT22;33323;52.124;6.018;2023-07-20T15:17:36;22.90;99.90
47600;DHT22;33323;52.124;6.018;2023-07-20T15:20:06;22.60;99.90
47600;DHT22;33323;52.124;6.018;2023-07-20T15:22:35;22.30;99.90
47600;DHT22;33323;52.124;6.018;2023-07-20T15:25:03;22.30;99.90
47600;DHT22;33323;52.124;6.018;2023-07-20T15:27:31;22.20;99.90
47600;DHT22;33323;52.124;6.018;2023-07-20T15:29:58;22.30;99.90
47600;DHT22;33323;52.124;6.018;2023-07-20T15:32:25;22.30;99.90
47600;DHT22;33323;52.124;6.018;2023-07-20T15:34:53;22.50;99.90
47600;DHT22;33323;52.124;6.018;2023-07-20T15:37:20;22.30;99.90
47600;DHT22;33323;52.124;6.018;2023-07-20T15:39:51;22.30;99.90
47600;DHT22;33323;52.124;6.018;2023-07-20T15:42:21;22.20;99.90
47600;DHT22;33323;52.124;6.018;2023-07-20T15:45:04;22.10;99.90
47600;DHT22;33323;52.124;6.018;2023-07-20T15:47:31;22.00;99.90
47600;DHT22;33323;52.124;6.018;2023-07-20T15:49:59;22.00;99.90
47600;DHT22;33323;52.124;6.018;2023-07-20T15:52:27;21.90;99.90
47600;DHT22;33323;52.124;6.018;2023-07-20T15:54:56;22.00;99.90
47600;DHT22;33323;52.124;6.018;2023-07-20T15:57:24;22.10;99.90
47600;DHT22;33323;52.124;6.018;2023-07-20T15:59:51;22.30;99.90
47600;DHT22;33323;52.124;6.018;2023-07-20T16:02:19;22.30;99.90
47600;DHT22;33323;52.124;6.018;2023-07-20T16:04:47;22.20;99.90
47600;DHT22;33323;52.124;6.018;2023-07-20T16:07:19;22.10;99.90
47600;DHT22;33323;52.124;6.018;2023-07-20T16:09:47;22.00;99.90
47600;DHT22;33323;52.124;6.018;2023-07-20T16:12:14;21.90;99.90